sensor_id;sensor_type;location;lat;lon;timestamp;temperature;humidity
29775;DHT22;16676;51.202;6.774;2022-11-20T00:01:12;16.70;73.00
29775;DHT22;16676;51.202;6.774;2022-11-20T00:05:15;16.70;73.00
29775;DHT22;16676;51.202;6.774;2022-11-20T00:09:17;16.70;72.90
29775;DHT22;16676;51.202;6.774;2022-11-20T00:13:19;16.70;73.00
29775;DHT22;16676;51.202;6.774;2022-11-20T00:17:21;16.70;72.80
29775;DHT22;16676;51.202;6.774;2022-11-20T00:21:28;16.70;72.60
29775;DHT22;16676;51.202;6.774;2022-11-20T00:25:30;16.70;72.80
29775;DHT22;16676;51.202;6.774;2022-11-20T00:29:32;16.70;72.80
29775;DHT22;16676;51.202;6.774;2022-11-20T00:33:34;16.70;72.60
29775;DHT22;16676;51.202;6.774;2022-11-20T00:37:38;16.70;72.70
29775;DHT22;16676;51.202;6.774;2022-11-20T00:41:40;16.70;72.60
29775;DHT22;16676;51.202;6.774;2022-11-20T00:45:42;16.70;72.70
29775;DHT22;16676;51.202;6.774;2022-11-20T00:49:43;16.70;72.70
29775;DHT22;16676;51.202;6.774;2022-11-20T00:53:47;16.70;72.40
29775;DHT22;16676;51.202;6.774;2022-11-20T00:57:50;16.70;72.70
29775;DHT22;16676;51.202;6.774;2022-11-20T01:01:51;16.60;72.50
29775;DHT22;16676;51.202;6.774;2022-11-20T01:05:53;16.70;72.50
29775;DHT22;16676;51.202;6.774;2022-11-20T01:09:57;16.70;72.40
29775;DHT22;16676;51.202;6.774;2022-11-20T01:13:59;16.70;72.40
29775;DHT22;16676;51.202;6.774;2022-11-20T01:18:01;16.60;72.30
29775;DHT22;16676;51.202;6.774;2022-11-20T01:22:03;16.60;72.30
29775;DHT22;16676;51.202;6.774;2022-11-20T01:26:09;16.60;72.30
29775;DHT22;16676;51.202;6.774;2022-11-20T01:30:12;16.60;72.30
29775;DHT22;16676;51.202;6.774;2022-11-20T01:34:17;16.60;72.30
29775;DHT22;16676;51.202;6.774;2022-11-20T01:38:19;16.70;72.20
29775;DHT22;16676;51.202;6.774;2022-11-20T01:42:24;16.60;73.00
29775;DHT22;16676;51.202;6.774;2022-11-20T01:46:52;16.60;72.30
29775;DHT22;16676;51.202;6.774;2022-11-20T01:50:57;16.60;72.20
29775;DHT22;16676;51.202;6.774;2022-11-20T01:55:03;16.60;72.10
29775;DHT22;16676;51.202;6.774;2022-11-20T01:59:08;16.60;72.10
29775;DHT22;16676;51.202;6.774;2022-11-20T02:03:13;16.60;72.30
29775;DHT22;16676;51.202;6.774;2022-11-20T02:07:17;16.60;72.20
29775;DHT22;16676;51.202;6.774;2022-11-20T02:11:20;16.60;72.00
29775;DHT22;16676;51.202;6.774;2022-11-20T02:15:23;16.60;72.00
29775;DHT22;16676;51.202;6.774;2022-11-20T02:19:28;16.60;71.90
29775;DHT22;16676;51.202;6.774;2022-11-20T02:23:35;16.60;71.90
29775;DHT22;16676;51.202;6.774;2022-11-20T02:27:40;16.50;71.90
29775;DHT22;16676;51.202;6.774;2022-11-20T02:31:43;16.60;72.00
29775;DHT22;16676;51.202;6.774;2022-11-20T02:35:46;16.50;71.80
29775;DHT22;16676;51.202;6.774;2022-11-20T02:39:50;16.50;71.90
29775;DHT22;16676;51.202;6.774;2022-11-20T02:43:54;16.50;71.80
29775;DHT22;16676;51.202;6.774;2022-11-20T02:47:59;16.50;71.90
29775;DHT22;16676;51.202;6.774;2022-11-20T02:52:01;16.50;72.60
29775;DHT22;16676;51.202;6.774;2022-11-20T02:56:04;16.50;71.90
29775;DHT22;16676;51.202;6.774;2022-11-20T03:00:08;16.50;71.80
29775;DHT22;16676;51.202;6.774;2022-11-20T03:04:11;16.50;71.90
29775;DHT22;16676;51.202;6.774;2022-11-20T03:08:13;16.50;71.80
29775;DHT22;16676;51.202;6.774;2022-11-20T03:12:14;16.50;71.80
29775;DHT22;16676;51.202;6.774;2022-11-20T03:16:19;16.50;71.80
29775;DHT22;16676;51.202;6.774;2022-11-20T03:20:22;16.50;71.70
29775;DHT22;16676;51.202;6.774;2022-11-20T03:24:24;16.50;71.80
29775;DHT22;16676;51.202;6.774;2022-11-20T03:28:26;16.50;71.60
29775;DHT22;16676;51.202;6.774;2022-11-20T03:32:29;16.50;71.60
29775;DHT22;16676;51.202;6.774;2022-11-20T03:36:31;16.40;71.60
29775;DHT22;16676;51.202;6.774;2022-11-20T03:40:34;16.50;71.70
29775;DHT22;16676;51.202;6.774;2022-11-20T03:44:37;16.40;71.60
29775;DHT22;16676;51.202;6.774;2022-11-20T03:48:40;16.40;71.60
29775;DHT22;16676;51.202;6.774;2022-11-20T03:52:42;16.40;71.50
29775;DHT22;16676;51.202;6.774;2022-11-20T03:56:44;16.40;71.50
29775;DHT22;16676;51.202;6.774;2022-11-20T04:00:46;16.40;71.50
29775;DHT22;16676;51.202;6.774;2022-11-20T04:04:49;16.40;71.40
29775;DHT22;16676;51.202;6.774;2022-11-20T04:08:54;16.40;71.40
29775;DHT22;16676;51.202;6.774;2022-11-20T04:12:56;16.40;71.50
29775;DHT22;16676;51.202;6.774;2022-11-20T04:16:58;16.40;71.50
29775;DHT22;16676;51.202;6.774;2022-11-20T04:21:02;16.40;71.50
29775;DHT22;16676;51.202;6.774;2022-11-20T04:25:04;16.40;71.60
29775;DHT22;16676;51.202;6.774;2022-11-20T04:29:09;16.30;71.50
29775;DHT22;16676;51.202;6.774;2022-11-20T04:33:31;16.30;71.50
29775;DHT22;16676;51.202;6.774;2022-11-20T04:37:55;16.40;71.60
29775;DHT22;16676;51.202;6.774;2022-11-20T04:42:17;16.30;71.50
29775;DHT22;16676;51.202;6.774;2022-11-20T04:46:34;16.30;71.50
29775;DHT22;16676;51.202;6.774;2022-11-20T04:50:39;16.30;71.40
29775;DHT22;16676;51.202;6.774;2022-11-20T04:54:43;16.30;71.30
29775;DHT22;16676;51.202;6.774;2022-11-20T04:58:45;16.30;71.50
29775;DHT22;16676;51.202;6.774;2022-11-20T05:02:47;16.30;71.50
29775;DHT22;16676;51.202;6.774;2022-11-20T05:06:49;16.30;71.40
29775;DHT22;16676;51.202;6.774;2022-11-20T05:10:52;16.30;71.30
29775;DHT22;16676;51.202;6.774;2022-11-20T05:14:54;16.30;71.40
29775;DHT22;16676;51.202;6.774;2022-11-20T05:18:57;16.30;71.30
29775;DHT22;16676;51.202;6.774;2022-11-20T05:22:59;16.30;71.50
29775;DHT22;16676;51.202;6.774;2022-11-20T05:27:02;16.30;71.30
29775;DHT22;16676;51.202;6.774;2022-11-20T05:31:05;16.30;71.20
29775;DHT22;16676;51.202;6.774;2022-11-20T05:35:07;16.20;71.20
29775;DHT22;16676;51.202;6.774;2022-11-20T05:39:09;16.20;71.20
29775;DHT22;16676;51.202;6.774;2022-11-20T05:43:13;16.30;71.30
29775;DHT22;16676;51.202;6.774;2022-11-20T05:47:15;16.20;71.30
29775;DHT22;16676;51.202;6.774;2022-11-20T05:51:18;16.20;71.20
29775;DHT22;16676;51.202;6.774;2022-11-20T05:55:20;16.20;71.30
29775;DHT22;16676;51.202;6.774;2022-11-20T05:59:24;16.20;71.20
29775;DHT22;16676;51.202;6.774;2022-11-20T06:03:26;16.20;71.20
29775;DHT22;16676;51.202;6.774;2022-11-20T06:07:27;16.20;71.20
29775;DHT22;16676;51.202;6.774;2022-11-20T06:11:29;16.20;71.20
29775;DHT22;16676;51.202;6.774;2022-11-20T06:15:33;16.20;71.10
29775;DHT22;16676;51.202;6.774;2022-11-20T06:19:35;16.20;71.00
29775;DHT22;16676;51.202;6.774;2022-11-20T06:23:37;16.20;71.20
29775;DHT22;16676;51.202;6.774;2022-11-20T06:27:39;16.20;71.10
29775;DHT22;16676;51.202;6.774;2022-11-20T06:31:42;16.20;71.20
29775;DHT22;16676;51.202;6.774;2022-11-20T06:35:45;16.20;71.20
29775;DHT22;16676;51.202;6.774;2022-11-20T06:39:47;16.20;71.00
29775;DHT22;16676;51.202;6.774;2022-11-20T06:43:49;16.20;71.00
29775;DHT22;16676;51.202;6.774;2022-11-20T06:47:53;16.20;70.90
29775;DHT22;16676;51.202;6.774;2022-11-20T06:51:54;16.20;71.00
29775;DHT22;16676;51.202;6.774;2022-11-20T06:55:57;16.20;71.00
29775;DHT22;16676;51.202;6.774;2022-11-20T06:59:59;16.20;71.00
29775;DHT22;16676;51.202;6.774;2022-11-20T07:04:02;16.10;70.90
29775;DHT22;16676;51.202;6.774;2022-11-20T07:08:04;16.20;71.10
29775;DHT22;16676;51.202;6.774;2022-11-20T07:12:06;16.10;71.00
29775;DHT22;16676;51.202;6.774;2022-11-20T07:16:08;16.20;70.80
29775;DHT22;16676;51.202;6.774;2022-11-20T07:20:13;16.10;70.70
29775;DHT22;16676;51.202;6.774;2022-11-20T07:24:15;16.20;70.70
29775;DHT22;16676;51.202;6.774;2022-11-20T07:28:17;16.20;70.60
29775;DHT22;16676;51.202;6.774;2022-11-20T07:32:19;16.20;70.50
29775;DHT22;16676;51.202;6.774;2022-11-20T07:36:23;16.20;70.50
29775;DHT22;16676;51.202;6.774;2022-11-20T07:40:25;16.20;71.20
29775;DHT22;16676;51.202;6.774;2022-11-20T07:44:27;16.20;70.60
29775;DHT22;16676;51.202;6.774;2022-11-20T07:48:29;16.20;70.50
29775;DHT22;16676;51.202;6.774;2022-11-20T07:52:32;16.20;70.40
29775;DHT22;16676;51.202;6.774;2022-11-20T07:56:34;16.20;70.50
29775;DHT22;16676;51.202;6.774;2022-11-20T08:00:36;16.10;70.40
29775;DHT22;16676;51.202;6.774;2022-11-20T08:04:38;16.10;70.50
29775;DHT22;16676;51.202;6.774;2022-11-20T08:08:41;16.10;70.50
29775;DHT22;16676;51.202;6.774;2022-11-20T08:12:44;16.10;69.20
29775;DHT22;16676;51.202;6.774;2022-11-20T08:17:04;15.60;58.40
29775;DHT22;16676;51.202;6.774;2022-11-20T08:21:06;15.30;57.70
29775;DHT22;16676;51.202;6.774;2022-11-20T08:25:10;14.60;54.60
29775;DHT22;16676;51.202;6.774;2022-11-20T08:29:12;14.40;60.70
29775;DHT22;16676;51.202;6.774;2022-11-20T08:33:14;15.00;61.20
29775;DHT22;16676;51.202;6.774;2022-11-20T08:37:17;15.70;60.60
29775;DHT22;16676;51.202;6.774;2022-11-20T08:41:21;16.30;60.60
29775;DHT22;16676;51.202;6.774;2022-11-20T08:45:27;16.80;60.70
29775;DHT22;16676;51.202;6.774;2022-11-20T08:49:29;17.10;60.00
29775;DHT22;16676;51.202;6.774;2022-11-20T08:53:31;17.40;59.80
29775;DHT22;16676;51.202;6.774;2022-11-20T08:57:35;17.60;59.70
29775;DHT22;16676;51.202;6.774;2022-11-20T09:01:37;17.70;59.60
29775;DHT22;16676;51.202;6.774;2022-11-20T09:05:40;17.90;59.80
29775;DHT22;16676;51.202;6.774;2022-11-20T09:09:43;18.00;59.80
29775;DHT22;16676;51.202;6.774;2022-11-20T09:13:46;18.10;59.90
29775;DHT22;16676;51.202;6.774;2022-11-20T09:17:51;18.10;59.80
29775;DHT22;16676;51.202;6.774;2022-11-20T09:21:53;18.10;60.00
29775;DHT22;16676;51.202;6.774;2022-11-20T09:25:55;18.10;59.90
29775;DHT22;16676;51.202;6.774;2022-11-20T09:30:01;18.20;60.10
29775;DHT22;16676;51.202;6.774;2022-11-20T09:34:03;18.20;60.20
29775;DHT22;16676;51.202;6.774;2022-11-20T09:38:06;18.20;60.30
29775;DHT22;16676;51.202;6.774;2022-11-20T09:42:18;18.20;60.30
29775;DHT22;16676;51.202;6.774;2022-11-20T09:46:29;18.20;60.40
29775;DHT22;16676;51.202;6.774;2022-11-20T09:50:43;18.30;60.60
29775;DHT22;16676;51.202;6.774;2022-11-20T09:54:49;18.30;60.90
29775;DHT22;16676;51.202;6.774;2022-11-20T09:58:54;18.30;61.00
29775;DHT22;16676;51.202;6.774;2022-11-20T10:03:01;18.20;61.00
29775;DHT22;16676;51.202;6.774;2022-11-20T10:07:12;18.20;61.30
29775;DHT22;16676;51.202;6.774;2022-11-20T10:11:23;18.10;61.40
29775;DHT22;16676;51.202;6.774;2022-11-20T10:15:34;18.10;61.90
29775;DHT22;16676;51.202;6.774;2022-11-20T10:19:51;18.10;62.10
29775;DHT22;16676;51.202;6.774;2022-11-20T10:28:45;18.00;62.50
29775;DHT22;16676;51.202;6.774;2022-11-20T10:32:51;18.10;62.80
29775;DHT22;16676;51.202;6.774;2022-11-20T10:36:59;18.00;62.90
29775;DHT22;16676;51.202;6.774;2022-11-20T10:41:06;18.00;63.10
29775;DHT22;16676;51.202;6.774;2022-11-20T10:45:38;17.90;63.20
29775;DHT22;16676;51.202;6.774;2022-11-20T10:49:42;18.10;63.20
29775;DHT22;16676;51.202;6.774;2022-11-20T10:53:56;18.40;62.20
29775;DHT22;16676;51.202;6.774;2022-11-20T10:58:04;18.70;61.60
29775;DHT22;16676;51.202;6.774;2022-11-20T11:02:20;18.80;61.10
29775;DHT22;16676;51.202;6.774;2022-11-20T11:06:30;19.00;60.50
29775;DHT22;16676;51.202;6.774;2022-11-20T11:10:40;19.20;60.20
29775;DHT22;16676;51.202;6.774;2022-11-20T11:14:48;19.30;60.50
29775;DHT22;16676;51.202;6.774;2022-11-20T11:18:51;19.40;60.00
29775;DHT22;16676;51.202;6.774;2022-11-20T11:22:55;19.40;59.90
29775;DHT22;16676;51.202;6.774;2022-11-20T11:27:00;19.40;59.80
29775;DHT22;16676;51.202;6.774;2022-11-20T11:31:05;19.40;59.90
29775;DHT22;16676;51.202;6.774;2022-11-20T11:35:20;19.40;60.20
29775;DHT22;16676;51.202;6.774;2022-11-20T11:39:22;19.30;60.30
29775;DHT22;16676;51.202;6.774;2022-11-20T11:43:29;19.20;60.00
29775;DHT22;16676;51.202;6.774;2022-11-20T11:47:50;19.20;59.90
29775;DHT22;16676;51.202;6.774;2022-11-20T11:52:02;19.10;60.30
29775;DHT22;16676;51.202;6.774;2022-11-20T11:56:08;19.10;60.80
29775;DHT22;16676;51.202;6.774;2022-11-20T12:00:15;19.00;60.90
29775;DHT22;16676;51.202;6.774;2022-11-20T12:04:23;19.00;61.10
29775;DHT22;16676;51.202;6.774;2022-11-20T12:08:31;18.90;61.10
29775;DHT22;16676;51.202;6.774;2022-11-20T12:12:37;18.80;61.50
29775;DHT22;16676;51.202;6.774;2022-11-20T12:16:43;18.90;61.70
29775;DHT22;16676;51.202;6.774;2022-11-20T12:20:50;18.90;61.90
29775;DHT22;16676;51.202;6.774;2022-11-20T12:24:57;18.80;62.00
29775;DHT22;16676;51.202;6.774;2022-11-20T12:29:08;18.80;62.30
29775;DHT22;16676;51.202;6.774;2022-11-20T12:33:42;18.80;62.40
29775;DHT22;16676;51.202;6.774;2022-11-20T12:37:58;18.70;62.40
29775;DHT22;16676;51.202;6.774;2022-11-20T12:42:23;18.70;62.50
29775;DHT22;16676;51.202;6.774;2022-11-20T12:46:47;18.60;62.60
29775;DHT22;16676;51.202;6.774;2022-11-20T12:51:06;18.60;62.80
29775;DHT22;16676;51.202;6.774;2022-11-20T12:55:20;18.50;62.70
29775;DHT22;16676;51.202;6.774;2022-11-20T12:59:34;18.50;62.90
29775;DHT22;16676;51.202;6.774;2022-11-20T13:03:44;18.40;63.00
29775;DHT22;16676;51.202;6.774;2022-11-20T13:07:53;18.40;63.10
29775;DHT22;16676;51.202;6.774;2022-11-20T13:12:02;18.40;63.20
29775;DHT22;16676;51.202;6.774;2022-11-20T13:16:09;18.40;63.10
29775;DHT22;16676;51.202;6.774;2022-11-20T13:20:14;18.30;63.20
29775;DHT22;16676;51.202;6.774;2022-11-20T13:24:24;18.30;63.50
29775;DHT22;16676;51.202;6.774;2022-11-20T13:28:29;18.20;63.40
29775;DHT22;16676;51.202;6.774;2022-11-20T13:32:31;18.20;63.40
29775;DHT22;16676;51.202;6.774;2022-11-20T13:36:34;18.20;63.60
29775;DHT22;16676;51.202;6.774;2022-11-20T13:40:50;18.10;63.30
29775;DHT22;16676;51.202;6.774;2022-11-20T13:44:54;18.10;63.60
29775;DHT22;16676;51.202;6.774;2022-11-20T13:48:57;18.10;63.70
29775;DHT22;16676;51.202;6.774;2022-11-20T13:53:04;18.00;63.80
29775;DHT22;16676;51.202;6.774;2022-11-20T13:57:22;18.00;64.10
29775;DHT22;16676;51.202;6.774;2022-11-20T14:01:33;18.00;64.70
29775;DHT22;16676;51.202;6.774;2022-11-20T14:05:37;18.00;64.70
29775;DHT22;16676;51.202;6.774;2022-11-20T14:09:49;18.00;64.70
29775;DHT22;16676;51.202;6.774;2022-11-20T14:14:01;17.90;64.60
29775;DHT22;16676;51.202;6.774;2022-11-20T14:18:12;17.90;64.50
29775;DHT22;16676;51.202;6.774;2022-11-20T14:22:18;17.90;64.60
29775;DHT22;16676;51.202;6.774;2022-11-20T14:26:21;17.80;64.50
29775;DHT22;16676;51.202;6.774;2022-11-20T14:30:27;17.80;64.60
29775;DHT22;16676;51.202;6.774;2022-11-20T14:34:31;17.80;64.70
29775;DHT22;16676;51.202;6.774;2022-11-20T14:38:34;17.60;65.60
29775;DHT22;16676;51.202;6.774;2022-11-20T14:42:36;17.50;66.20
29775;DHT22;16676;51.202;6.774;2022-11-20T14:46:40;17.50;66.50
29775;DHT22;16676;51.202;6.774;2022-11-20T14:50:42;17.60;65.90
29775;DHT22;16676;51.202;6.774;2022-11-20T14:54:46;17.50;66.40
29775;DHT22;16676;51.202;6.774;2022-11-20T14:58:55;17.40;67.30
29775;DHT22;16676;51.202;6.774;2022-11-20T15:02:59;17.40;66.80
29775;DHT22;16676;51.202;6.774;2022-11-20T15:07:01;17.50;66.30
29775;DHT22;16676;51.202;6.774;2022-11-20T15:11:16;17.50;69.10
29775;DHT22;16676;51.202;6.774;2022-11-20T15:15:23;17.40;68.10
29775;DHT22;16676;51.202;6.774;2022-11-20T15:19:28;17.40;68.20
29775;DHT22;16676;51.202;6.774;2022-11-20T15:23:30;17.40;69.70
29775;DHT22;16676;51.202;6.774;2022-11-20T15:27:32;17.40;69.40
29775;DHT22;16676;51.202;6.774;2022-11-20T15:31:34;17.40;69.10
29775;DHT22;16676;51.202;6.774;2022-11-20T15:35:38;17.40;68.20
29775;DHT22;16676;51.202;6.774;2022-11-20T15:39:40;17.40;67.90
29775;DHT22;16676;51.202;6.774;2022-11-20T15:43:42;17.40;68.10
29775;DHT22;16676;51.202;6.774;2022-11-20T15:47:44;17.40;67.30
29775;DHT22;16676;51.202;6.774;2022-11-20T15:51:49;17.40;67.80
29775;DHT22;16676;51.202;6.774;2022-11-20T15:55:54;17.40;67.50
29775;DHT22;16676;51.202;6.774;2022-11-20T15:59:56;17.40;67.60
29775;DHT22;16676;51.202;6.774;2022-11-20T16:03:59;17.30;67.60
29775;DHT22;16676;51.202;6.774;2022-11-20T16:08:02;17.40;67.60
29775;DHT22;16676;51.202;6.774;2022-11-20T16:12:05;17.30;67.70
29775;DHT22;16676;51.202;6.774;2022-11-20T16:16:10;17.30;68.00
29775;DHT22;16676;51.202;6.774;2022-11-20T16:20:12;17.30;68.00
29775;DHT22;16676;51.202;6.774;2022-11-20T16:24:16;17.30;67.90
29775;DHT22;16676;51.202;6.774;2022-11-20T16:28:18;17.30;68.10
29775;DHT22;16676;51.202;6.774;2022-11-20T16:32:23;17.20;67.80
29775;DHT22;16676;51.202;6.774;2022-11-20T16:36:27;17.20;67.80
29775;DHT22;16676;51.202;6.774;2022-11-20T16:40:31;17.20;67.70
29775;DHT22;16676;51.202;6.774;2022-11-20T16:44:33;17.20;67.60
29775;DHT22;16676;51.202;6.774;2022-11-20T16:48:35;17.10;67.70
29775;DHT22;16676;51.202;6.774;2022-11-20T16:52:37;17.20;69.00
29775;DHT22;16676;51.202;6.774;2022-11-20T16:56:41;17.10;71.40
29775;DHT22;16676;51.202;6.774;2022-11-20T17:00:43;17.20;71.00
29775;DHT22;16676;51.202;6.774;2022-11-20T17:04:45;17.10;71.70
29775;DHT22;16676;51.202;6.774;2022-11-20T17:08:48;17.20;70.80
29775;DHT22;16676;51.202;6.774;2022-11-20T17:12:51;17.10;70.30
29775;DHT22;16676;51.202;6.774;2022-11-20T17:16:53;17.20;70.30
29775;DHT22;16676;51.202;6.774;2022-11-20T17:20:55;17.10;70.60
29775;DHT22;16676;51.202;6.774;2022-11-20T17:24:58;17.10;71.10
29775;DHT22;16676;51.202;6.774;2022-11-20T17:29:03;17.20;71.60
29775;DHT22;16676;51.202;6.774;2022-11-20T17:33:05;17.10;71.80
29775;DHT22;16676;51.202;6.774;2022-11-20T17:37:08;17.10;72.30
29775;DHT22;16676;51.202;6.774;2022-11-20T17:41:10;17.10;71.10
29775;DHT22;16676;51.202;6.774;2022-11-20T17:45:14;17.20;71.30
29775;DHT22;16676;51.202;6.774;2022-11-20T17:49:16;17.10;70.70
29775;DHT22;16676;51.202;6.774;2022-11-20T17:53:18;17.10;70.70
29775;DHT22;16676;51.202;6.774;2022-11-20T17:57:21;17.10;70.70
29775;DHT22;16676;51.202;6.774;2022-11-20T18:01:42;17.10;70.30
29775;DHT22;16676;51.202;6.774;2022-11-20T18:05:44;17.00;70.00
29775;DHT22;16676;51.202;6.774;2022-11-20T18:09:46;17.00;70.20
29775;DHT22;16676;51.202;6.774;2022-11-20T18:13:50;17.00;73.00
29775;DHT22;16676;51.202;6.774;2022-11-20T18:18:11;16.90;73.80
29775;DHT22;16676;51.202;6.774;2022-11-20T18:22:16;17.00;73.70
29775;DHT22;16676;51.202;6.774;2022-11-20T18:26:18;17.00;73.10
29775;DHT22;16676;51.202;6.774;2022-11-20T18:30:21;17.00;73.30
29775;DHT22;16676;51.202;6.774;2022-11-20T18:34:26;17.10;72.60
29775;DHT22;16676;51.202;6.774;2022-11-20T18:38:28;16.50;64.70
29775;DHT22;16676;51.202;6.774;2022-11-20T18:42:31;16.00;67.80
29775;DHT22;16676;51.202;6.774;2022-11-20T18:46:51;16.30;70.00
29775;DHT22;16676;51.202;6.774;2022-11-20T18:50:54;16.50;70.80
29775;DHT22;16676;51.202;6.774;2022-11-20T18:55:06;16.50;71.90
29775;DHT22;16676;51.202;6.774;2022-11-20T18:59:09;16.60;72.80
29775;DHT22;16676;51.202;6.774;2022-11-20T19:03:11;16.60;73.80
29775;DHT22;16676;51.202;6.774;2022-11-20T19:07:15;16.70;74.20
29775;DHT22;16676;51.202;6.774;2022-11-20T19:11:17;16.80;74.50
29775;DHT22;16676;51.202;6.774;2022-11-20T19:15:19;16.80;74.50
29775;DHT22;16676;51.202;6.774;2022-11-20T19:19:21;16.80;74.50
29775;DHT22;16676;51.202;6.774;2022-11-20T19:23:25;16.80;74.80
29775;DHT22;16676;51.202;6.774;2022-11-20T19:27:27;16.80;75.10
29775;DHT22;16676;51.202;6.774;2022-11-20T19:31:29;16.80;75.30
29775;DHT22;16676;51.202;6.774;2022-11-20T19:35:31;16.80;75.30
29775;DHT22;16676;51.202;6.774;2022-11-20T19:39:35;16.70;75.00
29775;DHT22;16676;51.202;6.774;2022-11-20T19:43:37;16.80;74.10
29775;DHT22;16676;51.202;6.774;2022-11-20T19:47:40;16.90;73.30
29775;DHT22;16676;51.202;6.774;2022-11-20T19:51:45;16.80;74.90
29775;DHT22;16676;51.202;6.774;2022-11-20T19:55:56;16.80;75.60
29775;DHT22;16676;51.202;6.774;2022-11-20T19:59:58;16.90;74.30
29775;DHT22;16676;51.202;6.774;2022-11-20T20:04:01;16.90;73.80
29775;DHT22;16676;51.202;6.774;2022-11-20T20:08:04;16.80;74.60
29775;DHT22;16676;51.202;6.774;2022-11-20T20:12:08;16.90;73.50
29775;DHT22;16676;51.202;6.774;2022-11-20T20:16:11;16.90;72.50
29775;DHT22;16676;51.202;6.774;2022-11-20T20:20:14;16.90;72.80
29775;DHT22;16676;51.202;6.774;2022-11-20T20:24:17;16.90;72.80
29775;DHT22;16676;51.202;6.774;2022-11-20T20:28:20;16.90;72.80
29775;DHT22;16676;51.202;6.774;2022-11-20T20:32:23;16.80;72.70
29775;DHT22;16676;51.202;6.774;2022-11-20T20:36:25;16.90;72.80
29775;DHT22;16676;51.202;6.774;2022-11-20T20:40:27;16.90;72.50
29775;DHT22;16676;51.202;6.774;2022-11-20T20:44:31;16.90;72.80
29775;DHT22;16676;51.202;6.774;2022-11-20T20:48:51;16.90;72.60
29775;DHT22;16676;51.202;6.774;2022-11-20T20:52:53;16.80;72.80
29775;DHT22;16676;51.202;6.774;2022-11-20T20:56:55;16.80;72.70
29775;DHT22;16676;51.202;6.774;2022-11-20T21:01:02;16.80;73.90
29775;DHT22;16676;51.202;6.774;2022-11-20T21:05:05;16.80;73.10
29775;DHT22;16676;51.202;6.774;2022-11-20T21:09:07;16.80;73.10
29775;DHT22;16676;51.202;6.774;2022-11-20T21:13:09;16.90;73.00
29775;DHT22;16676;51.202;6.774;2022-11-20T21:17:12;16.80;72.40
29775;DHT22;16676;51.202;6.774;2022-11-20T21:21:15;16.80;72.70
29775;DHT22;16676;51.202;6.774;2022-11-20T21:25:36;16.80;72.70
29775;DHT22;16676;51.202;6.774;2022-11-20T21:29:38;16.80;72.80
29775;DHT22;16676;51.202;6.774;2022-11-20T21:33:42;16.80;72.80
29775;DHT22;16676;51.202;6.774;2022-11-20T21:37:44;16.80;72.80
29775;DHT22;16676;51.202;6.774;2022-11-20T21:41:46;16.80;72.70
29775;DHT22;16676;51.202;6.774;2022-11-20T21:45:48;16.80;72.70
29775;DHT22;16676;51.202;6.774;2022-11-20T21:49:52;16.80;72.30
29775;DHT22;16676;51.202;6.774;2022-11-20T21:53:54;16.80;72.10
29775;DHT22;16676;51.202;6.774;2022-11-20T21:57:57;16.80;72.80
29775;DHT22;16676;51.202;6.774;2022-11-20T22:01:59;16.70;72.20
29775;DHT22;16676;51.202;6.774;2022-11-20T22:06:02;16.80;72.30
29775;DHT22;16676;51.202;6.774;2022-11-20T22:10:05;16.80;73.10
29775;DHT22;16676;51.202;6.774;2022-11-20T22:14:09;16.70;72.40
29775;DHT22;16676;51.202;6.774;2022-11-20T22:18:23;16.80;72.40
29775;DHT22;16676;51.202;6.774;2022-11-20T22:22:26;16.80;72.20
29775;DHT22;16676;51.202;6.774;2022-11-20T22:26:29;16.80;72.50
29775;DHT22;16676;51.202;6.774;2022-11-20T22:30:31;16.80;72.40
29775;DHT22;16676;51.202;6.774;2022-11-20T22:34:33;16.80;72.20
29775;DHT22;16676;51.202;6.774;2022-11-20T22:38:38;16.80;72.30
29775;DHT22;16676;51.202;6.774;2022-11-20T22:42:43;16.70;72.40
29775;DHT22;16676;51.202;6.774;2022-11-20T22:46:45;16.80;72.40
29775;DHT22;16676;51.202;6.774;2022-11-20T22:50:47;16.80;72.40
29775;DHT22;16676;51.202;6.774;2022-11-20T22:54:50;16.80;72.10
29775;DHT22;16676;51.202;6.774;2022-11-20T22:58:53;16.80;72.00
29775;DHT22;16676;51.202;6.774;2022-11-20T23:02:55;16.80;72.10
29775;DHT22;16676;51.202;6.774;2022-11-20T23:06:57;16.80;72.20
29775;DHT22;16676;51.202;6.774;2022-11-20T23:11:02;16.80;72.20
29775;DHT22;16676;51.202;6.774;2022-11-20T23:15:05;16.80;72.30
29775;DHT22;16676;51.202;6.774;2022-11-20T23:19:09;16.70;72.30
29775;DHT22;16676;51.202;6.774;2022-11-20T23:23:12;16.80;72.50
29775;DHT22;16676;51.202;6.774;2022-11-20T23:27:15;16.70;72.40
29775;DHT22;16676;51.202;6.774;2022-11-20T23:31:17;16.70;72.10
29775;DHT22;16676;51.202;6.774;2022-11-20T23:35:19;16.70;72.00
29775;DHT22;16676;51.202;6.774;2022-11-20T23:39:21;16.70;72.40
29775;DHT22;16676;51.202;6.774;2022-11-20T23:43:24;16.70;72.20
29775;DHT22;16676;51.202;6.774;2022-11-20T23:47:26;16.70;72.10
29775;DHT22;16676;51.202;6.774;2022-11-20T23:51:28;16.70;71.90
29775;DHT22;16676;51.202;6.774;2022-11-20T23:55:32;16.70;72.00
29775;DHT22;16676;51.202;6.774;2022-11-20T23:59:35;16.70;72.20
